AAL2128 KEYW-KBOS
Flight info
| Callsign | AAL2128 |
|---|---|
| Flight time | 3h 13m |
| Altitude | 36000 |
| Route | BUFTT1 MATLK Q87 ZERBO/N0466F370 Q87 JROSS ELLDE Q97 PAACK JAMIE Q133 JFK ROBUC3 |
| Aircraft | B38M/M-SDE1FGHILORVWXY/HB1 |
Departure
| Time | 2026-05-05 21:00 |
|---|---|
| Airport | Key West International Airport (KEYW) |
Arrival
| Time | 2026-05-06 00:13 |
|---|---|
| Airport | Boston Logan International Airport (KBOS) |
| Time | Latitude | Longitude | Altitude | Speed | Heading |
|---|---|---|---|---|---|
| 2026-05-05 20:24 | 24.55443 | -81.75576 | 14 ft | 0 kts | 180° |
| 2026-05-05 20:48 | 24.55447 | -81.75576 | 14 ft | 3 kts | 180° |
| 2026-05-05 20:48 | 24.55469 | -81.75576 | 17 ft | 3 kts | 180° |
| 2026-05-05 20:48 | 24.55486 | -81.75568 | 14 ft | 4 kts | 251° |
| 2026-05-05 20:48 | 24.55488 | -81.75542 | 14 ft | 4 kts | 270° |
| 2026-05-05 20:49 | 24.55489 | -81.75519 | 14 ft | 3 kts | 270° |
| 2026-05-05 20:49 | 24.55489 | -81.75490 | 14 ft | 2 kts | 269° |
| 2026-05-05 20:49 | 24.55489 | -81.75488 | 14 ft | 1 kts | 269° |
| 2026-05-05 20:54 | 24.55490 | -81.75499 | 14 ft | 4 kts | 278° |
| 2026-05-05 20:54 | 24.55516 | -81.75518 | 15 ft | 5 kts | 9° |
| 2026-05-05 20:55 | 24.55529 | -81.75492 | 15 ft | 4 kts | 92° |
| 2026-05-05 20:55 | 24.55531 | -81.75431 | 15 ft | 12 kts | 88° |
| 2026-05-05 20:55 | 24.55532 | -81.75334 | 15 ft | 11 kts | 90° |
| 2026-05-05 20:55 | 24.55532 | -81.75275 | 15 ft | 3 kts | 88° |
| 2026-05-05 20:56 | 24.55533 | -81.75262 | 15 ft | 2 kts | 83° |
| 2026-05-05 20:56 | 24.55537 | -81.75252 | 15 ft | 0 kts | 64° |
| 2026-05-05 20:58 | 24.55557 | -81.75241 | 15 ft | 8 kts | 12° |
| 2026-05-05 20:58 | 24.55612 | -81.75240 | 16 ft | 4 kts | 356° |
| 2026-05-05 20:58 | 24.55619 | -81.75247 | 16 ft | 0 kts | 285° |
| 2026-05-05 20:59 | 24.55619 | -81.75252 | 16 ft | 0 kts | 270° |
| 2026-05-05 20:59 | 24.55619 | -81.75261 | 16 ft | 11 kts | 270° |
| 2026-05-05 20:59 | 24.55616 | -81.75664 | 16 ft | 91 kts | 269° |
| 2026-05-05 20:59 | 24.55608 | -81.76608 | 23 ft | 154 kts | 270° |
| 2026-05-05 21:00 | 24.55568 | -81.77796 | 669 ft | 160 kts | 266° |
| 2026-05-05 21:00 | 24.55720 | -81.79073 | 1207 ft | 178 kts | 293° |
| 2026-05-05 21:00 | 24.56534 | -81.80159 | 1922 ft | 195 kts | 327° |
| 2026-05-05 21:00 | 24.57918 | -81.80646 | 2283 ft | 225 kts | 359° |
| 2026-05-05 21:01 | 24.59535 | -81.80552 | 2964 ft | 237 kts | 2° |
| 2026-05-05 21:01 | 24.61232 | -81.80509 | 3635 ft | 253 kts | 358° |
| 2026-05-05 21:01 | 24.63052 | -81.80510 | 4256 ft | 269 kts | 360° |
| 2026-05-05 21:01 | 24.64860 | -81.80009 | 5188 ft | 273 kts | 26° |
| 2026-05-05 21:02 | 24.66362 | -81.78683 | 5982 ft | 284 kts | 45° |
| 2026-05-05 21:02 | 24.67717 | -81.77083 | 6826 ft | 288 kts | 44° |
| 2026-05-05 21:02 | 24.69098 | -81.75464 | 7614 ft | 293 kts | 44° |
| 2026-05-05 21:02 | 24.70496 | -81.73813 | 8434 ft | 297 kts | 45° |
| 2026-05-05 21:03 | 24.71912 | -81.72136 | 9235 ft | 301 kts | 44° |
| 2026-05-05 21:03 | 24.73360 | -81.70450 | 10026 ft | 306 kts | 44° |
| 2026-05-05 21:03 | 24.74847 | -81.68719 | 10537 ft | 320 kts | 44° |
| 2026-05-05 21:03 | 24.76426 | -81.66877 | 10837 ft | 341 kts | 44° |
| 2026-05-05 21:04 | 24.78099 | -81.64924 | 11111 ft | 360 kts | 44° |
| 2026-05-05 21:04 | 24.79850 | -81.62879 | 11465 ft | 374 kts | 44° |
| 2026-05-05 21:04 | 24.81648 | -81.60777 | 12077 ft | 378 kts | 44° |
| 2026-05-05 21:04 | 24.83485 | -81.58691 | 12727 ft | 381 kts | 41° |
| 2026-05-05 21:05 | 24.85403 | -81.56646 | 13366 ft | 385 kts | 41° |
| 2026-05-05 21:05 | 24.87331 | -81.54578 | 13992 ft | 389 kts | 41° |
| 2026-05-05 21:05 | 24.89274 | -81.52486 | 14583 ft | 392 kts | 41° |
| 2026-05-05 21:05 | 24.91228 | -81.50380 | 15181 ft | 394 kts | 41° |
| 2026-05-05 21:06 | 24.93194 | -81.48257 | 15758 ft | 397 kts | 41° |
| 2026-05-05 21:06 | 24.95171 | -81.46122 | 16331 ft | 399 kts | 41° |
| 2026-05-05 21:06 | 24.97162 | -81.43972 | 16888 ft | 402 kts | 41° |
| 2026-05-05 21:06 | 24.99164 | -81.41808 | 17429 ft | 404 kts | 41° |
| 2026-05-05 21:07 | 25.01176 | -81.39632 | 17969 ft | 407 kts | 41° |
| 2026-05-05 21:07 | 25.03205 | -81.37436 | 18463 ft | 409 kts | 41° |
| 2026-05-05 21:07 | 25.05244 | -81.35230 | 18889 ft | 412 kts | 40° |
| 2026-05-05 21:07 | 25.07296 | -81.33008 | 19301 ft | 415 kts | 40° |
| 2026-05-05 21:08 | 25.09361 | -81.30770 | 19710 ft | 418 kts | 40° |
| 2026-05-05 21:08 | 25.11444 | -81.28512 | 20105 ft | 421 kts | 40° |
| 2026-05-05 21:08 | 25.13540 | -81.26239 | 20502 ft | 424 kts | 40° |
| 2026-05-05 21:08 | 25.15647 | -81.23952 | 20885 ft | 427 kts | 40° |
| 2026-05-05 21:09 | 25.17769 | -81.21649 | 21270 ft | 429 kts | 40° |
| 2026-05-05 21:09 | 25.19905 | -81.19329 | 21641 ft | 432 kts | 40° |
| 2026-05-05 21:09 | 25.22055 | -81.16992 | 22014 ft | 435 kts | 40° |
| 2026-05-05 21:09 | 25.24217 | -81.14641 | 22385 ft | 437 kts | 40° |
| 2026-05-05 21:10 | 25.26391 | -81.12276 | 22734 ft | 440 kts | 39° |
| 2026-05-05 21:10 | 25.28576 | -81.09897 | 23083 ft | 443 kts | 39° |
| 2026-05-05 21:10 | 25.30777 | -81.07500 | 23432 ft | 445 kts | 39° |
| 2026-05-05 21:10 | 25.32989 | -81.05090 | 23723 ft | 448 kts | 39° |
| 2026-05-05 21:11 | 25.35262 | -81.02739 | 23999 ft | 445 kts | 32° |
| 2026-05-05 21:11 | 25.37891 | -81.01014 | 24281 ft | 436 kts | 17° |
| 2026-05-05 21:11 | 25.40780 | -81.00116 | 24518 ft | 429 kts | 3° |
| 2026-05-05 21:11 | 25.43745 | -80.99765 | 24761 ft | 430 kts | 0° |
| 2026-05-05 21:12 | 25.46730 | -80.99518 | 25035 ft | 431 kts | 359° |
| 2026-05-05 21:12 | 25.49727 | -80.99332 | 25322 ft | 432 kts | 358° |
| 2026-05-05 21:12 | 25.52730 | -80.99172 | 25607 ft | 433 kts | 358° |
| 2026-05-05 21:12 | 25.55748 | -80.99030 | 25886 ft | 435 kts | 357° |
| 2026-05-05 21:13 | 25.58775 | -80.98895 | 26174 ft | 436 kts | 357° |
| 2026-05-05 21:13 | 25.61817 | -80.98763 | 26458 ft | 438 kts | 357° |
| 2026-05-05 21:13 | 25.64826 | -80.98634 | 26731 ft | 440 kts | 357° |
| 2026-05-05 21:13 | 25.67929 | -80.98500 | 27023 ft | 441 kts | 357° |
| 2026-05-05 21:14 | 25.71003 | -80.98368 | 27300 ft | 443 kts | 357° |
| 2026-05-05 21:14 | 25.74051 | -80.98237 | 27580 ft | 445 kts | 357° |
| 2026-05-05 21:14 | 25.77148 | -80.98103 | 27850 ft | 447 kts | 357° |
| 2026-05-05 21:14 | 25.80260 | -80.97969 | 28116 ft | 448 kts | 357° |
| 2026-05-05 21:15 | 25.83379 | -80.97835 | 28386 ft | 450 kts | 357° |
| 2026-05-05 21:15 | 25.86513 | -80.97700 | 28660 ft | 451 kts | 357° |
| 2026-05-05 21:15 | 25.89659 | -80.97564 | 28928 ft | 453 kts | 357° |
| 2026-05-05 21:15 | 25.92816 | -80.97428 | 29175 ft | 455 kts | 357° |
| 2026-05-05 21:16 | 25.95988 | -80.97291 | 29428 ft | 457 kts | 357° |
| 2026-05-05 21:16 | 25.99166 | -80.97154 | 29751 ft | 457 kts | 357° |
| 2026-05-05 21:16 | 26.02335 | -80.97017 | 30130 ft | 456 kts | 357° |
| 2026-05-05 21:16 | 26.05499 | -80.96880 | 30470 ft | 454 kts | 357° |
| 2026-05-05 21:17 | 26.08650 | -80.96743 | 30817 ft | 452 kts | 356° |
| 2026-05-05 21:17 | 26.11786 | -80.96608 | 31169 ft | 450 kts | 356° |
| 2026-05-05 21:17 | 26.14908 | -80.96472 | 31528 ft | 448 kts | 356° |
| 2026-05-05 21:17 | 26.18019 | -80.96337 | 31886 ft | 446 kts | 356° |
| 2026-05-05 21:18 | 26.21115 | -80.96203 | 32242 ft | 444 kts | 356° |
| 2026-05-05 21:18 | 26.24196 | -80.96069 | 32608 ft | 442 kts | 356° |
| 2026-05-05 21:18 | 26.27263 | -80.95936 | 32984 ft | 440 kts | 356° |
| 2026-05-05 21:18 | 26.30312 | -80.95804 | 33381 ft | 438 kts | 356° |
| 2026-05-05 21:19 | 26.33348 | -80.95672 | 33762 ft | 435 kts | 356° |
| 2026-05-05 21:19 | 26.36367 | -80.95541 | 34124 ft | 433 kts | 356° |
| 2026-05-05 21:19 | 26.39370 | -80.95410 | 34449 ft | 431 kts | 356° |
| 2026-05-05 21:19 | 26.42322 | -80.95179 | 34750 ft | 432 kts | 359° |
| 2026-05-05 21:20 | 26.45305 | -80.94830 | 35070 ft | 429 kts | 359° |
| 2026-05-05 21:20 | 26.48267 | -80.94501 | 35436 ft | 426 kts | 359° |
| 2026-05-05 21:20 | 26.51210 | -80.94182 | 35746 ft | 424 kts | 358° |
| 2026-05-05 21:20 | 26.54142 | -80.93866 | 35985 ft | 423 kts | 358° |
| 2026-05-05 21:21 | 26.59982 | -80.93239 | 36019 ft | 419 kts | 358° |
| 2026-05-05 21:21 | 26.65780 | -80.92615 | 35998 ft | 418 kts | 358° |
| 2026-05-05 21:22 | 26.71580 | -80.91990 | 36008 ft | 419 kts | 358° |
| 2026-05-05 21:22 | 26.77377 | -80.91366 | 36001 ft | 419 kts | 358° |
| 2026-05-05 21:23 | 26.83180 | -80.90740 | 36021 ft | 419 kts | 358° |
| 2026-05-05 21:23 | 26.88981 | -80.90113 | 36047 ft | 419 kts | 358° |
| 2026-05-05 21:24 | 26.94770 | -80.89487 | 36022 ft | 417 kts | 358° |
| 2026-05-05 21:24 | 27.00552 | -80.88861 | 36019 ft | 418 kts | 358° |
| 2026-05-05 21:25 | 27.06338 | -80.88235 | 36021 ft | 418 kts | 358° |
| 2026-05-05 21:25 | 27.12125 | -80.87607 | 36019 ft | 418 kts | 358° |
| 2026-05-05 21:26 | 27.17912 | -80.86979 | 36040 ft | 418 kts | 358° |
| 2026-05-05 21:26 | 27.23693 | -80.86350 | 36019 ft | 417 kts | 357° |
| 2026-05-05 21:27 | 27.29437 | -80.85726 | 36015 ft | 417 kts | 357° |
| 2026-05-05 21:27 | 27.32333 | -80.85680 | 36005 ft | 404 kts | 345° |
| 2026-05-05 21:27 | 27.35095 | -80.86175 | 36017 ft | 404 kts | 345° |
| 2026-05-05 21:28 | 27.40607 | -80.87142 | 36024 ft | 404 kts | 344° |
| 2026-05-05 21:28 | 27.46147 | -80.88175 | 36035 ft | 403 kts | 344° |
| 2026-05-05 21:29 | 27.51680 | -80.89222 | 36039 ft | 403 kts | 344° |
| 2026-05-05 21:29 | 27.57212 | -80.90272 | 36046 ft | 403 kts | 344° |
| 2026-05-05 21:30 | 27.62745 | -80.91322 | 36030 ft | 403 kts | 344° |
| 2026-05-05 21:30 | 27.68286 | -80.92376 | 36032 ft | 404 kts | 344° |
| 2026-05-05 21:31 | 27.73827 | -80.93431 | 36037 ft | 404 kts | 344° |
| 2026-05-05 21:31 | 27.79367 | -80.94487 | 36053 ft | 403 kts | 343° |
| 2026-05-05 21:32 | 27.84884 | -80.95548 | 36038 ft | 402 kts | 343° |
| 2026-05-05 21:32 | 27.90399 | -80.96616 | 36042 ft | 402 kts | 343° |
| 2026-05-05 21:33 | 27.95914 | -80.97686 | 36042 ft | 402 kts | 343° |
| 2026-05-05 21:33 | 28.01430 | -80.98756 | 36050 ft | 402 kts | 343° |
| 2026-05-05 21:34 | 28.06948 | -80.99827 | 36049 ft | 402 kts | 343° |
| 2026-05-05 21:34 | 28.12452 | -81.00898 | 36046 ft | 400 kts | 343° |
| 2026-05-05 21:35 | 28.17936 | -81.01965 | 36055 ft | 400 kts | 343° |
| 2026-05-05 21:35 | 28.23427 | -81.03034 | 36059 ft | 400 kts | 343° |
| 2026-05-05 21:36 | 28.28913 | -81.04105 | 36060 ft | 400 kts | 343° |
| 2026-05-05 21:36 | 28.33474 | -81.04995 | 36054 ft | 400 kts | 343° |
| 2026-05-05 21:37 | 28.39598 | -81.06962 | 36041 ft | 392 kts | 334° |
| 2026-05-05 21:37 | 28.44688 | -81.09124 | 36049 ft | 391 kts | 334° |
| 2026-05-05 21:38 | 28.49770 | -81.11313 | 36048 ft | 390 kts | 333° |
| 2026-05-05 21:38 | 28.54025 | -81.13152 | 36047 ft | 391 kts | 333° |
| 2026-05-05 21:39 | 28.59104 | -81.15349 | 36048 ft | 391 kts | 333° |
| 2026-05-05 21:39 | 28.64183 | -81.17548 | 36054 ft | 390 kts | 333° |
| 2026-05-05 21:40 | 28.69259 | -81.19749 | 36080 ft | 390 kts | 333° |
| 2026-05-05 21:40 | 28.74304 | -81.21937 | 36053 ft | 388 kts | 333° |
| 2026-05-05 21:41 | 28.79316 | -81.24114 | 36080 ft | 389 kts | 333° |
| 2026-05-05 21:41 | 28.81843 | -81.25213 | 36336 ft | 388 kts | 333° |
| 2026-05-05 21:41 | 28.84367 | -81.26311 | 36603 ft | 387 kts | 333° |
| 2026-05-05 21:42 | 28.86877 | -81.27403 | 36888 ft | 386 kts | 333° |
| 2026-05-05 21:42 | 28.89380 | -81.28493 | 37067 ft | 385 kts | 333° |
| 2026-05-05 21:42 | 28.91975 | -81.29325 | 37027 ft | 393 kts | 346° |
| 2026-05-05 21:42 | 28.94712 | -81.29578 | 37096 ft | 395 kts | 346° |
| 2026-05-05 21:43 | 29.00200 | -81.30101 | 37094 ft | 396 kts | 347° |
| 2026-05-05 21:43 | 29.05692 | -81.30560 | 37072 ft | 395 kts | 347° |
| 2026-05-05 21:44 | 29.11183 | -81.31002 | 37070 ft | 396 kts | 347° |
| 2026-05-05 21:44 | 29.16673 | -81.31440 | 37073 ft | 396 kts | 347° |
| 2026-05-05 21:45 | 29.22168 | -81.31878 | 37075 ft | 396 kts | 347° |
| 2026-05-05 21:45 | 29.27661 | -81.32296 | 37084 ft | 397 kts | 347° |
| 2026-05-05 21:46 | 29.33160 | -81.32613 | 37091 ft | 395 kts | 347° |
| 2026-05-05 21:46 | 29.38659 | -81.32936 | 37081 ft | 395 kts | 347° |
| 2026-05-05 21:47 | 29.44153 | -81.33261 | 37083 ft | 396 kts | 347° |
| 2026-05-05 21:47 | 29.49650 | -81.33587 | 37083 ft | 396 kts | 347° |
| 2026-05-05 21:48 | 29.55147 | -81.33913 | 37113 ft | 395 kts | 347° |
| 2026-05-05 21:48 | 29.60636 | -81.34239 | 37088 ft | 394 kts | 347° |
| 2026-05-05 21:49 | 29.66121 | -81.34565 | 37086 ft | 395 kts | 347° |
| 2026-05-05 21:49 | 29.71602 | -81.34892 | 37085 ft | 394 kts | 347° |
| 2026-05-05 21:50 | 29.77086 | -81.35219 | 37080 ft | 394 kts | 347° |
| 2026-05-05 21:50 | 29.82565 | -81.35546 | 37089 ft | 394 kts | 347° |
| 2026-05-05 21:51 | 29.88011 | -81.35871 | 37087 ft | 394 kts | 347° |
| 2026-05-05 21:51 | 29.93488 | -81.36199 | 37084 ft | 394 kts | 347° |
| 2026-05-05 21:52 | 30.01707 | -81.36691 | 37082 ft | 394 kts | 347° |
| 2026-05-05 21:53 | 30.07189 | -81.37020 | 37083 ft | 394 kts | 347° |
| 2026-05-05 21:53 | 30.12668 | -81.37349 | 37113 ft | 394 kts | 347° |
| 2026-05-05 21:54 | 30.18150 | -81.37676 | 37077 ft | 394 kts | 347° |
| 2026-05-05 21:54 | 30.23633 | -81.38004 | 37073 ft | 395 kts | 347° |
| 2026-05-05 21:55 | 30.29116 | -81.38333 | 37074 ft | 395 kts | 347° |
| 2026-05-05 21:55 | 30.34600 | -81.38662 | 37073 ft | 395 kts | 347° |
| 2026-05-05 21:56 | 30.40084 | -81.38991 | 37069 ft | 395 kts | 347° |
| 2026-05-05 21:56 | 30.45568 | -81.39315 | 37070 ft | 395 kts | 348° |
| 2026-05-05 21:57 | 30.51058 | -81.39603 | 37082 ft | 395 kts | 348° |
| 2026-05-05 21:57 | 30.56547 | -81.39894 | 37082 ft | 395 kts | 348° |
| 2026-05-05 21:58 | 30.62038 | -81.40185 | 37079 ft | 395 kts | 348° |
| 2026-05-05 21:58 | 30.67526 | -81.40476 | 37101 ft | 395 kts | 348° |
| 2026-05-05 21:59 | 30.73012 | -81.40768 | 37076 ft | 394 kts | 348° |
| 2026-05-05 21:59 | 30.78493 | -81.41060 | 37071 ft | 394 kts | 348° |
| 2026-05-05 22:00 | 30.83938 | -81.41350 | 37066 ft | 394 kts | 348° |
| 2026-05-05 22:00 | 30.89421 | -81.41642 | 37061 ft | 394 kts | 348° |
| 2026-05-05 22:01 | 30.94900 | -81.41935 | 37059 ft | 394 kts | 348° |
| 2026-05-05 22:01 | 31.00381 | -81.42228 | 37060 ft | 394 kts | 348° |
| 2026-05-05 22:02 | 31.05859 | -81.42521 | 37057 ft | 394 kts | 348° |
| 2026-05-05 22:02 | 31.11344 | -81.42815 | 37054 ft | 394 kts | 348° |
| 2026-05-05 22:03 | 31.16828 | -81.43110 | 37055 ft | 394 kts | 348° |
| 2026-05-05 22:03 | 31.22310 | -81.43402 | 37073 ft | 395 kts | 349° |
| 2026-05-05 22:03 | 31.25090 | -81.43125 | 37087 ft | 412 kts | 4° |
| 2026-05-05 22:04 | 31.27837 | -81.41967 | 37086 ft | 426 kts | 12° |
| 2026-05-05 22:04 | 31.33285 | -81.39158 | 37073 ft | 429 kts | 13° |
| 2026-05-05 22:05 | 31.38721 | -81.36249 | 37067 ft | 430 kts | 13° |
| 2026-05-05 22:05 | 31.44150 | -81.33306 | 37065 ft | 430 kts | 13° |
| 2026-05-05 22:06 | 31.49580 | -81.30356 | 37059 ft | 430 kts | 14° |
| 2026-05-05 22:06 | 31.55015 | -81.27398 | 37067 ft | 432 kts | 14° |
| 2026-05-05 22:07 | 31.60496 | -81.24412 | 37056 ft | 435 kts | 15° |
| 2026-05-05 22:07 | 31.65988 | -81.21416 | 37053 ft | 435 kts | 15° |
| 2026-05-05 22:08 | 31.71482 | -81.18414 | 37047 ft | 435 kts | 15° |
| 2026-05-05 22:08 | 31.76973 | -81.15411 | 37073 ft | 435 kts | 15° |
| 2026-05-05 22:09 | 31.82468 | -81.12401 | 37051 ft | 436 kts | 15° |
| 2026-05-05 22:09 | 31.87971 | -81.09383 | 37044 ft | 436 kts | 15° |
| 2026-05-05 22:10 | 31.93435 | -81.06383 | 37045 ft | 436 kts | 15° |
| 2026-05-05 22:10 | 31.98934 | -81.03358 | 37043 ft | 436 kts | 15° |
| 2026-05-05 22:11 | 32.04424 | -81.00289 | 37087 ft | 436 kts | 14° |
| 2026-05-05 22:11 | 32.09875 | -80.97241 | 37046 ft | 432 kts | 14° |
| 2026-05-05 22:12 | 32.15312 | -80.94198 | 37080 ft | 433 kts | 14° |
| 2026-05-05 22:12 | 32.20750 | -80.91149 | 37088 ft | 433 kts | 14° |
| 2026-05-05 22:13 | 32.26181 | -80.88100 | 37091 ft | 432 kts | 15° |
| 2026-05-05 22:13 | 32.31606 | -80.85052 | 37109 ft | 432 kts | 15° |
| 2026-05-05 22:14 | 32.37024 | -80.82002 | 37084 ft | 431 kts | 15° |
| 2026-05-05 22:14 | 32.42446 | -80.78946 | 37082 ft | 432 kts | 15° |
| 2026-05-05 22:15 | 32.47865 | -80.75888 | 37082 ft | 432 kts | 15° |
| 2026-05-05 22:15 | 32.53285 | -80.72825 | 37082 ft | 432 kts | 15° |
| 2026-05-05 22:16 | 32.58704 | -80.69759 | 37086 ft | 431 kts | 15° |
| 2026-05-05 22:16 | 32.64120 | -80.66690 | 37083 ft | 431 kts | 15° |
| 2026-05-05 22:17 | 32.69529 | -80.63610 | 37079 ft | 434 kts | 17° |
| 2026-05-05 22:17 | 32.72060 | -80.61522 | 37057 ft | 453 kts | 32° |
| 2026-05-05 22:17 | 32.74386 | -80.58984 | 37079 ft | 455 kts | 31° |
| 2026-05-05 22:18 | 32.79063 | -80.53884 | 37082 ft | 457 kts | 32° |
| 2026-05-05 22:18 | 32.83705 | -80.48736 | 37074 ft | 454 kts | 32° |
| 2026-05-05 22:19 | 32.88308 | -80.43610 | 37076 ft | 454 kts | 32° |
| 2026-05-05 22:19 | 32.92887 | -80.38503 | 37076 ft | 454 kts | 32° |
| 2026-05-05 22:20 | 32.97527 | -80.33321 | 37080 ft | 454 kts | 32° |
| 2026-05-05 22:20 | 33.02102 | -80.28204 | 37082 ft | 454 kts | 32° |
| 2026-05-05 22:21 | 33.06707 | -80.23045 | 37065 ft | 454 kts | 32° |
| 2026-05-05 22:21 | 33.11307 | -80.17883 | 37066 ft | 454 kts | 32° |
| 2026-05-05 22:22 | 33.15901 | -80.12720 | 37096 ft | 451 kts | 32° |
| 2026-05-05 22:22 | 33.20458 | -80.07592 | 37092 ft | 450 kts | 32° |
| 2026-05-05 22:23 | 33.25018 | -80.02454 | 37093 ft | 451 kts | 32° |
| 2026-05-05 22:23 | 33.29573 | -79.97311 | 37130 ft | 450 kts | 32° |
| 2026-05-05 22:24 | 33.34118 | -79.92174 | 37083 ft | 449 kts | 32° |
| 2026-05-05 22:24 | 33.38646 | -79.87046 | 37081 ft | 450 kts | 32° |
| 2026-05-05 22:25 | 33.43178 | -79.81908 | 37074 ft | 450 kts | 32° |
| 2026-05-05 22:25 | 33.46953 | -79.77621 | 37082 ft | 449 kts | 32° |
| 2026-05-05 22:26 | 33.51472 | -79.72484 | 37067 ft | 447 kts | 32° |
| 2026-05-05 22:26 | 33.56716 | -79.66511 | 37085 ft | 446 kts | 32° |
| 2026-05-05 22:27 | 33.60482 | -79.62215 | 37078 ft | 446 kts | 32° |
| 2026-05-05 22:27 | 33.64977 | -79.57081 | 37083 ft | 446 kts | 32° |
| 2026-05-05 22:28 | 33.69441 | -79.51974 | 37085 ft | 446 kts | 32° |
| 2026-05-05 22:28 | 33.73931 | -79.46830 | 37084 ft | 446 kts | 33° |
| 2026-05-05 22:29 | 33.78419 | -79.41680 | 37117 ft | 446 kts | 33° |
| 2026-05-05 22:29 | 33.82900 | -79.36531 | 37093 ft | 445 kts | 33° |
| 2026-05-05 22:30 | 33.87375 | -79.31380 | 37087 ft | 445 kts | 33° |
| 2026-05-05 22:30 | 33.91849 | -79.26224 | 37092 ft | 445 kts | 33° |
| 2026-05-05 22:31 | 33.96321 | -79.21060 | 37092 ft | 445 kts | 33° |
| 2026-05-05 22:31 | 34.00793 | -79.15890 | 37114 ft | 446 kts | 33° |
| 2026-05-05 22:32 | 34.05237 | -79.10743 | 37092 ft | 446 kts | 33° |
| 2026-05-05 22:32 | 34.09708 | -79.05558 | 37091 ft | 446 kts | 33° |
| 2026-05-05 22:33 | 34.14186 | -79.00357 | 37078 ft | 447 kts | 34° |
| 2026-05-05 22:33 | 34.18667 | -78.95144 | 37077 ft | 447 kts | 34° |
| 2026-05-05 22:34 | 34.23144 | -78.89927 | 37106 ft | 447 kts | 34° |
| 2026-05-05 22:34 | 34.27896 | -78.85331 | 37090 ft | 425 kts | 19° |
| 2026-05-05 22:35 | 34.32948 | -78.81408 | 37081 ft | 434 kts | 24° |
| 2026-05-05 22:35 | 34.37954 | -78.77298 | 37066 ft | 435 kts | 25° |
| 2026-05-05 22:36 | 34.42946 | -78.73163 | 37095 ft | 435 kts | 25° |
| 2026-05-05 22:36 | 34.47937 | -78.69021 | 37080 ft | 435 kts | 25° |
| 2026-05-05 22:37 | 34.52924 | -78.64876 | 37096 ft | 435 kts | 25° |
| 2026-05-05 22:37 | 34.57911 | -78.60725 | 37090 ft | 435 kts | 25° |
| 2026-05-05 22:38 | 34.62899 | -78.56567 | 37081 ft | 435 kts | 25° |
| 2026-05-05 22:38 | 34.67881 | -78.52407 | 37078 ft | 435 kts | 25° |
| 2026-05-05 22:39 | 34.72867 | -78.48238 | 37078 ft | 435 kts | 25° |
| 2026-05-05 22:39 | 34.77854 | -78.44062 | 37072 ft | 436 kts | 25° |
| 2026-05-05 22:40 | 34.82849 | -78.39874 | 37078 ft | 436 kts | 25° |
| 2026-05-05 22:40 | 34.87837 | -78.35684 | 37082 ft | 436 kts | 25° |
| 2026-05-05 22:41 | 34.92829 | -78.31486 | 37081 ft | 436 kts | 25° |
| 2026-05-05 22:41 | 34.97820 | -78.27280 | 37086 ft | 437 kts | 25° |
| 2026-05-05 22:42 | 35.02820 | -78.23063 | 37078 ft | 437 kts | 25° |
| 2026-05-05 22:42 | 35.07821 | -78.18837 | 37073 ft | 437 kts | 25° |
| 2026-05-05 22:43 | 35.12785 | -78.14636 | 37072 ft | 437 kts | 25° |
| 2026-05-05 22:43 | 35.17781 | -78.10401 | 37069 ft | 437 kts | 26° |
| 2026-05-05 22:44 | 35.22788 | -78.06152 | 37054 ft | 438 kts | 26° |
| 2026-05-05 22:44 | 35.27793 | -78.01897 | 37052 ft | 438 kts | 26° |
| 2026-05-05 22:45 | 35.32799 | -77.97635 | 37056 ft | 438 kts | 26° |
| 2026-05-05 22:45 | 35.37801 | -77.93368 | 37059 ft | 438 kts | 26° |
| 2026-05-05 22:46 | 35.42794 | -77.89105 | 37055 ft | 437 kts | 26° |
| 2026-05-05 22:46 | 35.47789 | -77.84833 | 37056 ft | 438 kts | 26° |
| 2026-05-05 22:47 | 35.52778 | -77.80559 | 37086 ft | 437 kts | 26° |
| 2026-05-05 22:47 | 35.57769 | -77.76276 | 37081 ft | 438 kts | 26° |
| 2026-05-05 22:48 | 35.62724 | -77.72018 | 37081 ft | 438 kts | 26° |
| 2026-05-05 22:48 | 35.67719 | -77.67719 | 37058 ft | 438 kts | 26° |
| 2026-05-05 22:49 | 35.72717 | -77.63411 | 37054 ft | 439 kts | 26° |
| 2026-05-05 22:49 | 35.77713 | -77.59098 | 37069 ft | 439 kts | 26° |
| 2026-05-05 22:50 | 35.82713 | -77.54774 | 37050 ft | 439 kts | 27° |
| 2026-05-05 22:50 | 35.87715 | -77.50441 | 37040 ft | 440 kts | 27° |
| 2026-05-05 22:51 | 35.92725 | -77.46096 | 37035 ft | 440 kts | 27° |
| 2026-05-05 22:51 | 35.97734 | -77.41744 | 37034 ft | 440 kts | 27° |
| 2026-05-05 22:52 | 36.02740 | -77.37388 | 37035 ft | 440 kts | 27° |
| 2026-05-05 22:52 | 36.07742 | -77.33028 | 37061 ft | 440 kts | 27° |
| 2026-05-05 22:53 | 36.12757 | -77.28650 | 37038 ft | 442 kts | 27° |
| 2026-05-05 22:53 | 36.17785 | -77.24254 | 37030 ft | 443 kts | 27° |
| 2026-05-05 22:54 | 36.22815 | -77.19849 | 37030 ft | 443 kts | 27° |
| 2026-05-05 22:54 | 36.27843 | -77.15438 | 37027 ft | 443 kts | 27° |
| 2026-05-05 22:55 | 36.32871 | -77.11021 | 37030 ft | 444 kts | 27° |
| 2026-05-05 22:55 | 36.37921 | -77.06577 | 37027 ft | 445 kts | 27° |
| 2026-05-05 22:56 | 36.42962 | -77.02133 | 37030 ft | 445 kts | 27° |
| 2026-05-05 22:56 | 36.48005 | -76.97682 | 37028 ft | 445 kts | 27° |
| 2026-05-05 22:57 | 36.53015 | -76.93251 | 37033 ft | 445 kts | 27° |
| 2026-05-05 22:57 | 36.58105 | -76.88742 | 37020 ft | 447 kts | 27° |
| 2026-05-05 22:58 | 36.63173 | -76.84246 | 37026 ft | 447 kts | 27° |
| 2026-05-05 22:58 | 36.68244 | -76.79740 | 37024 ft | 448 kts | 27° |
| 2026-05-05 22:59 | 36.73311 | -76.75229 | 37040 ft | 448 kts | 27° |
| 2026-05-05 22:59 | 36.78352 | -76.70735 | 37025 ft | 449 kts | 27° |
| 2026-05-05 23:00 | 36.85973 | -76.63926 | 37024 ft | 449 kts | 27° |
| 2026-05-05 23:00 | 36.91050 | -76.59380 | 37022 ft | 449 kts | 27° |
| 2026-05-05 23:01 | 36.96129 | -76.54825 | 37025 ft | 449 kts | 27° |
| 2026-05-05 23:01 | 37.01224 | -76.50248 | 37012 ft | 452 kts | 27° |
| 2026-05-05 23:02 | 37.06324 | -76.45659 | 37000 ft | 451 kts | 28° |
| 2026-05-05 23:02 | 37.11419 | -76.41066 | 36992 ft | 451 kts | 28° |
| 2026-05-05 23:03 | 37.16513 | -76.36467 | 37016 ft | 451 kts | 28° |
| 2026-05-05 23:03 | 37.21617 | -76.31850 | 37001 ft | 453 kts | 28° |
| 2026-05-05 23:04 | 37.26725 | -76.27222 | 36999 ft | 453 kts | 28° |
| 2026-05-05 23:04 | 37.31837 | -76.22583 | 36988 ft | 453 kts | 28° |
| 2026-05-05 23:05 | 37.36945 | -76.17940 | 36998 ft | 453 kts | 28° |
| 2026-05-05 23:05 | 37.42053 | -76.13287 | 36998 ft | 454 kts | 28° |
| 2026-05-05 23:06 | 37.47164 | -76.08625 | 36992 ft | 454 kts | 28° |
| 2026-05-05 23:06 | 37.52268 | -76.03961 | 36999 ft | 454 kts | 28° |
| 2026-05-05 23:07 | 37.57341 | -75.99317 | 36996 ft | 454 kts | 28° |
| 2026-05-05 23:07 | 37.62520 | -75.94834 | 37003 ft | 450 kts | 25° |
| 2026-05-05 23:08 | 37.67772 | -75.90511 | 37007 ft | 451 kts | 26° |
| 2026-05-05 23:08 | 37.73014 | -75.86160 | 37007 ft | 451 kts | 26° |
| 2026-05-05 23:09 | 37.78256 | -75.81800 | 37008 ft | 451 kts | 26° |
| 2026-05-05 23:09 | 37.83498 | -75.77431 | 37015 ft | 452 kts | 26° |
| 2026-05-05 23:10 | 37.88740 | -75.73056 | 37008 ft | 451 kts | 26° |
| 2026-05-05 23:10 | 37.93983 | -75.68671 | 37012 ft | 452 kts | 26° |
| 2026-05-05 23:11 | 37.99241 | -75.64337 | 36985 ft | 447 kts | 21° |
| 2026-05-05 23:11 | 38.04756 | -75.60742 | 36977 ft | 447 kts | 21° |
| 2026-05-05 23:12 | 38.10250 | -75.57024 | 36991 ft | 448 kts | 21° |
| 2026-05-05 23:12 | 38.15741 | -75.53277 | 36981 ft | 448 kts | 21° |
| 2026-05-05 23:13 | 38.21230 | -75.49523 | 36974 ft | 448 kts | 21° |
| 2026-05-05 23:13 | 38.26718 | -75.45763 | 36972 ft | 449 kts | 21° |
| 2026-05-05 23:14 | 38.32216 | -75.41990 | 36991 ft | 449 kts | 22° |
| 2026-05-05 23:14 | 38.37707 | -75.38215 | 36971 ft | 448 kts | 22° |
| 2026-05-05 23:15 | 38.42270 | -75.35073 | 36976 ft | 448 kts | 22° |
| 2026-05-05 23:15 | 38.47766 | -75.31283 | 36977 ft | 450 kts | 22° |
| 2026-05-05 23:16 | 38.54165 | -75.26861 | 36994 ft | 450 kts | 22° |
| 2026-05-05 23:16 | 38.58778 | -75.23668 | 36982 ft | 450 kts | 22° |
| 2026-05-05 23:17 | 38.64279 | -75.19853 | 36993 ft | 450 kts | 22° |
| 2026-05-05 23:17 | 38.69792 | -75.16025 | 36965 ft | 451 kts | 22° |
| 2026-05-05 23:18 | 38.75305 | -75.12189 | 36964 ft | 451 kts | 22° |
| 2026-05-05 23:18 | 38.80818 | -75.08347 | 36964 ft | 451 kts | 22° |
| 2026-05-05 23:19 | 38.86315 | -75.04508 | 36987 ft | 451 kts | 23° |
| 2026-05-05 23:19 | 38.91798 | -75.00674 | 36971 ft | 452 kts | 23° |
| 2026-05-05 23:20 | 38.97321 | -74.96804 | 36970 ft | 452 kts | 23° |
| 2026-05-05 23:20 | 39.02841 | -74.92929 | 36969 ft | 452 kts | 23° |
| 2026-05-05 23:21 | 39.08367 | -74.89043 | 36973 ft | 453 kts | 23° |
| 2026-05-05 23:21 | 39.13898 | -74.85146 | 36969 ft | 453 kts | 23° |
| 2026-05-05 23:22 | 39.19427 | -74.81244 | 36956 ft | 453 kts | 23° |
| 2026-05-05 23:22 | 39.24959 | -74.77333 | 36985 ft | 453 kts | 23° |
| 2026-05-05 23:23 | 39.30492 | -74.73413 | 36958 ft | 454 kts | 23° |
| 2026-05-05 23:23 | 39.36035 | -74.69480 | 36958 ft | 455 kts | 23° |
| 2026-05-05 23:24 | 39.41511 | -74.65351 | 36956 ft | 457 kts | 27° |
| 2026-05-05 23:24 | 39.46864 | -74.60901 | 36967 ft | 458 kts | 27° |
| 2026-05-05 23:25 | 39.52243 | -74.56484 | 36952 ft | 458 kts | 27° |
| 2026-05-05 23:25 | 39.57627 | -74.52063 | 36947 ft | 458 kts | 27° |
| 2026-05-05 23:26 | 39.62975 | -74.47663 | 36947 ft | 458 kts | 27° |
| 2026-05-05 23:26 | 39.68351 | -74.43231 | 36942 ft | 458 kts | 27° |
| 2026-05-05 23:27 | 39.73726 | -74.38793 | 36927 ft | 458 kts | 27° |
| 2026-05-05 23:27 | 39.79101 | -74.34344 | 36940 ft | 458 kts | 27° |
| 2026-05-05 23:28 | 39.84484 | -74.29883 | 36955 ft | 459 kts | 27° |
| 2026-05-05 23:28 | 39.89872 | -74.25409 | 36937 ft | 460 kts | 27° |
| 2026-05-05 23:29 | 39.95264 | -74.20922 | 36934 ft | 460 kts | 27° |
| 2026-05-05 23:29 | 40.00659 | -74.16425 | 36931 ft | 460 kts | 27° |
| 2026-05-05 23:30 | 40.06052 | -74.11921 | 36927 ft | 461 kts | 27° |
| 2026-05-05 23:30 | 40.11447 | -74.07406 | 36918 ft | 461 kts | 27° |
| 2026-05-05 23:31 | 40.16850 | -74.02876 | 36911 ft | 461 kts | 27° |
| 2026-05-05 23:31 | 40.22247 | -73.98341 | 36907 ft | 461 kts | 28° |
| 2026-05-05 23:32 | 40.27649 | -73.93795 | 36893 ft | 462 kts | 28° |
| 2026-05-05 23:32 | 40.33060 | -73.89232 | 36905 ft | 462 kts | 28° |
| 2026-05-05 23:33 | 40.38469 | -73.84661 | 36897 ft | 462 kts | 28° |
| 2026-05-05 23:33 | 40.43874 | -73.80087 | 36897 ft | 462 kts | 28° |
| 2026-05-05 23:34 | 40.46575 | -73.77796 | 36753 ft | 462 kts | 28° |
| 2026-05-05 23:34 | 40.49235 | -73.75540 | 36485 ft | 460 kts | 28° |
| 2026-05-05 23:34 | 40.51915 | -73.73263 | 36215 ft | 460 kts | 27° |
| 2026-05-05 23:34 | 40.54603 | -73.70977 | 35910 ft | 457 kts | 27° |
| 2026-05-05 23:35 | 40.57271 | -73.68709 | 35130 ft | 458 kts | 27° |
| 2026-05-05 23:35 | 40.59974 | -73.66407 | 34085 ft | 467 kts | 27° |
| 2026-05-05 23:35 | 40.62704 | -73.64076 | 33342 ft | 466 kts | 27° |
| 2026-05-05 23:35 | 40.65410 | -73.61765 | 32664 ft | 462 kts | 27° |
| 2026-05-05 23:36 | 40.68109 | -73.59458 | 31813 ft | 464 kts | 27° |
| 2026-05-05 23:36 | 40.70821 | -73.57138 | 30952 ft | 466 kts | 28° |
| 2026-05-05 23:36 | 40.73547 | -73.54804 | 30147 ft | 468 kts | 28° |
| 2026-05-05 23:36 | 40.76283 | -73.52460 | 29224 ft | 470 kts | 29° |
| 2026-05-05 23:37 | 40.79034 | -73.50101 | 28286 ft | 472 kts | 29° |
| 2026-05-05 23:37 | 40.81781 | -73.47743 | 27419 ft | 473 kts | 29° |
| 2026-05-05 23:37 | 40.84551 | -73.45303 | 26809 ft | 485 kts | 34° |
| 2026-05-05 23:37 | 40.87007 | -73.42187 | 26502 ft | 494 kts | 45° |
| 2026-05-05 23:38 | 40.89347 | -73.38830 | 26287 ft | 500 kts | 45° |
| 2026-05-05 23:38 | 40.91696 | -73.35417 | 26040 ft | 504 kts | 45° |
| 2026-05-05 23:38 | 40.94044 | -73.31963 | 25790 ft | 505 kts | 45° |
| 2026-05-05 23:38 | 40.96382 | -73.28504 | 25518 ft | 504 kts | 45° |
| 2026-05-05 23:39 | 40.98709 | -73.25055 | 25281 ft | 502 kts | 45° |
| 2026-05-05 23:39 | 41.01030 | -73.21610 | 25009 ft | 500 kts | 46° |
| 2026-05-05 23:39 | 41.03340 | -73.18177 | 24751 ft | 499 kts | 46° |
| 2026-05-05 23:39 | 41.05644 | -73.14751 | 24493 ft | 497 kts | 46° |
| 2026-05-05 23:40 | 41.07941 | -73.11329 | 24257 ft | 496 kts | 46° |
| 2026-05-05 23:40 | 41.10232 | -73.07913 | 24018 ft | 495 kts | 46° |
| 2026-05-05 23:40 | 41.12513 | -73.04508 | 23755 ft | 493 kts | 46° |
| 2026-05-05 23:40 | 41.14789 | -73.01109 | 23515 ft | 492 kts | 46° |
| 2026-05-05 23:41 | 41.17054 | -72.97719 | 23208 ft | 491 kts | 46° |
| 2026-05-05 23:41 | 41.19296 | -72.94363 | 22956 ft | 489 kts | 46° |
| 2026-05-05 23:41 | 41.21305 | -72.90790 | 22882 ft | 492 kts | 58° |
| 2026-05-05 23:41 | 41.22913 | -72.86763 | 22881 ft | 494 kts | 60° |
| 2026-05-05 23:42 | 41.24503 | -72.82724 | 22879 ft | 494 kts | 61° |
| 2026-05-05 23:42 | 41.26074 | -72.78666 | 22898 ft | 494 kts | 61° |
| 2026-05-05 23:42 | 41.27633 | -72.74596 | 22885 ft | 494 kts | 61° |
| 2026-05-05 23:42 | 41.29189 | -72.70520 | 22894 ft | 494 kts | 62° |
| 2026-05-05 23:43 | 41.30741 | -72.66447 | 22922 ft | 495 kts | 62° |
| 2026-05-05 23:43 | 41.32298 | -72.62357 | 22758 ft | 495 kts | 62° |
| 2026-05-05 23:43 | 41.33845 | -72.58284 | 22407 ft | 492 kts | 62° |
| 2026-05-05 23:43 | 41.35388 | -72.54218 | 22304 ft | 491 kts | 62° |
| 2026-05-05 23:44 | 41.36923 | -72.50167 | 22171 ft | 490 kts | 62° |
| 2026-05-05 23:44 | 41.38456 | -72.46115 | 22056 ft | 489 kts | 62° |
| 2026-05-05 23:44 | 41.39984 | -72.42073 | 21951 ft | 488 kts | 62° |
| 2026-05-05 23:44 | 41.41508 | -72.38035 | 21909 ft | 488 kts | 62° |
| 2026-05-05 23:45 | 41.43030 | -72.33996 | 21909 ft | 488 kts | 62° |
| 2026-05-05 23:45 | 41.44552 | -72.29950 | 21909 ft | 488 kts | 62° |
| 2026-05-05 23:45 | 41.46073 | -72.25904 | 21906 ft | 488 kts | 62° |
| 2026-05-05 23:45 | 41.47590 | -72.21857 | 21905 ft | 488 kts | 62° |
| 2026-05-05 23:46 | 41.49082 | -72.17788 | 21886 ft | 489 kts | 62° |
| 2026-05-05 23:46 | 41.50576 | -72.13714 | 21889 ft | 489 kts | 62° |
| 2026-05-05 23:46 | 41.52069 | -72.09640 | 21897 ft | 489 kts | 62° |
| 2026-05-05 23:46 | 41.53561 | -72.05566 | 21892 ft | 489 kts | 62° |
| 2026-05-05 23:47 | 41.55050 | -72.01485 | 21896 ft | 489 kts | 63° |
| 2026-05-05 23:47 | 41.56351 | -71.97326 | 21792 ft | 478 kts | 66° |
| 2026-05-05 23:47 | 41.57589 | -71.93259 | 21358 ft | 469 kts | 66° |
| 2026-05-05 23:47 | 41.58826 | -71.89242 | 20674 ft | 468 kts | 66° |
| 2026-05-05 23:48 | 41.60017 | -71.85257 | 20443 ft | 455 kts | 68° |
| 2026-05-05 23:48 | 41.61158 | -71.81381 | 20289 ft | 442 kts | 68° |
| 2026-05-05 23:48 | 41.62270 | -71.77614 | 20073 ft | 431 kts | 68° |
| 2026-05-05 23:48 | 41.63357 | -71.73930 | 19839 ft | 421 kts | 68° |
| 2026-05-05 23:49 | 41.64417 | -71.70336 | 19672 ft | 410 kts | 68° |
| 2026-05-05 23:49 | 41.65446 | -71.66840 | 19495 ft | 397 kts | 68° |
| 2026-05-05 23:49 | 41.66443 | -71.63449 | 19331 ft | 387 kts | 68° |
| 2026-05-05 23:49 | 41.67417 | -71.60132 | 19165 ft | 379 kts | 68° |
| 2026-05-05 23:50 | 41.68379 | -71.56850 | 18696 ft | 381 kts | 68° |
| 2026-05-05 23:50 | 41.69339 | -71.53567 | 18355 ft | 378 kts | 68° |
| 2026-05-05 23:50 | 41.70295 | -71.50295 | 17894 ft | 378 kts | 68° |
| 2026-05-05 23:50 | 41.71252 | -71.47018 | 17426 ft | 378 kts | 68° |
| 2026-05-05 23:51 | 41.72215 | -71.43736 | 16947 ft | 378 kts | 66° |
| 2026-05-05 23:51 | 41.73473 | -71.40639 | 16384 ft | 380 kts | 58° |
| 2026-05-05 23:51 | 41.74806 | -71.37587 | 15947 ft | 379 kts | 59° |
| 2026-05-05 23:51 | 41.76109 | -71.34523 | 15493 ft | 379 kts | 59° |
| 2026-05-05 23:52 | 41.77400 | -71.31445 | 15023 ft | 377 kts | 59° |
| 2026-05-05 23:52 | 41.78676 | -71.28404 | 14568 ft | 373 kts | 59° |
| 2026-05-05 23:52 | 41.79963 | -71.25403 | 14062 ft | 370 kts | 59° |
| 2026-05-05 23:52 | 41.81234 | -71.22427 | 13591 ft | 366 kts | 59° |
| 2026-05-05 23:53 | 41.82488 | -71.19481 | 13107 ft | 362 kts | 59° |
| 2026-05-05 23:53 | 41.83726 | -71.16568 | 12649 ft | 357 kts | 59° |
| 2026-05-05 23:53 | 41.84928 | -71.13738 | 12223 ft | 351 kts | 59° |
| 2026-05-05 23:53 | 41.86135 | -71.10936 | 11899 ft | 342 kts | 59° |
| 2026-05-05 23:54 | 41.87328 | -71.08180 | 11707 ft | 333 kts | 59° |
| 2026-05-05 23:54 | 41.88467 | -71.05547 | 11525 ft | 329 kts | 59° |
| 2026-05-05 23:54 | 41.89615 | -71.02887 | 11328 ft | 330 kts | 59° |
| 2026-05-05 23:54 | 41.90763 | -71.00223 | 11127 ft | 329 kts | 59° |
| 2026-05-05 23:55 | 41.91908 | -70.97568 | 10919 ft | 328 kts | 59° |
| 2026-05-05 23:55 | 41.93046 | -70.94923 | 10713 ft | 327 kts | 59° |
| 2026-05-05 23:55 | 41.94180 | -70.92286 | 10511 ft | 326 kts | 59° |
| 2026-05-05 23:55 | 41.95311 | -70.89654 | 10308 ft | 325 kts | 59° |
| 2026-05-05 23:56 | 41.96438 | -70.87027 | 10089 ft | 324 kts | 59° |
| 2026-05-05 23:56 | 41.97564 | -70.84402 | 9896 ft | 325 kts | 59° |
| 2026-05-05 23:56 | 41.98693 | -70.81767 | 9686 ft | 325 kts | 59° |
| 2026-05-05 23:56 | 41.99821 | -70.79134 | 9482 ft | 324 kts | 59° |
| 2026-05-05 23:57 | 42.00954 | -70.76523 | 9271 ft | 323 kts | 56° |
| 2026-05-05 23:57 | 42.02371 | -70.74207 | 9020 ft | 320 kts | 45° |
| 2026-05-05 23:57 | 42.03877 | -70.72006 | 8828 ft | 320 kts | 45° |
| 2026-05-05 23:57 | 42.05375 | -70.69791 | 8644 ft | 320 kts | 46° |
| 2026-05-05 23:58 | 42.06866 | -70.67568 | 8432 ft | 319 kts | 46° |
| 2026-05-05 23:58 | 42.08351 | -70.65347 | 8249 ft | 319 kts | 46° |
| 2026-05-05 23:58 | 42.09844 | -70.63144 | 8059 ft | 318 kts | 41° |
| 2026-05-05 23:58 | 42.11669 | -70.61561 | 7749 ft | 309 kts | 14° |
| 2026-05-05 23:59 | 42.13734 | -70.60869 | 7473 ft | 305 kts | 6° |
| 2026-05-05 23:59 | 42.15808 | -70.60262 | 7192 ft | 306 kts | 6° |
| 2026-05-05 23:59 | 42.17889 | -70.59666 | 6913 ft | 305 kts | 6° |
| 2026-05-05 23:59 | 42.19963 | -70.59079 | 6601 ft | 303 kts | 5° |
| 2026-05-06 00:00 | 42.22023 | -70.58501 | 6309 ft | 302 kts | 5° |
| 2026-05-06 00:00 | 42.24073 | -70.57927 | 5994 ft | 300 kts | 5° |
| 2026-05-06 00:00 | 42.26107 | -70.57358 | 5702 ft | 298 kts | 5° |
| 2026-05-06 00:00 | 42.28129 | -70.56792 | 5420 ft | 296 kts | 5° |
| 2026-05-06 00:01 | 42.30155 | -70.56235 | 5154 ft | 297 kts | 2° |
| 2026-05-06 00:01 | 42.32127 | -70.56361 | 5027 ft | 276 kts | 334° |
| 2026-05-06 00:01 | 42.33749 | -70.57567 | 5024 ft | 261 kts | 311° |
| 2026-05-06 00:01 | 42.35122 | -70.59171 | 5021 ft | 258 kts | 310° |
| 2026-05-06 00:02 | 42.36420 | -70.60744 | 5077 ft | 242 kts | 308° |
| 2026-05-06 00:02 | 42.37617 | -70.62240 | 5056 ft | 228 kts | 307° |
| 2026-05-06 00:02 | 42.38733 | -70.63663 | 5056 ft | 214 kts | 307° |
| 2026-05-06 00:02 | 42.39781 | -70.65014 | 5043 ft | 205 kts | 306° |
| 2026-05-06 00:03 | 42.40803 | -70.66346 | 5025 ft | 204 kts | 305° |
| 2026-05-06 00:03 | 42.41818 | -70.67676 | 5012 ft | 203 kts | 305° |
| 2026-05-06 00:03 | 42.42832 | -70.69006 | 5010 ft | 203 kts | 306° |
| 2026-05-06 00:03 | 42.43504 | -70.69884 | 4998 ft | 203 kts | 306° |
| 2026-05-06 00:04 | 42.44524 | -70.71210 | 4829 ft | 204 kts | 306° |
| 2026-05-06 00:04 | 42.45549 | -70.72537 | 4639 ft | 204 kts | 306° |
| 2026-05-06 00:04 | 42.46908 | -70.74296 | 4389 ft | 204 kts | 306° |
| 2026-05-06 00:04 | 42.47602 | -70.75195 | 4253 ft | 205 kts | 306° |
| 2026-05-06 00:05 | 42.49669 | -70.77861 | 3882 ft | 206 kts | 306° |
| 2026-05-06 00:05 | 42.50712 | -70.79189 | 3707 ft | 206 kts | 306° |
| 2026-05-06 00:05 | 42.51761 | -70.80507 | 3507 ft | 205 kts | 306° |
| 2026-05-06 00:06 | 42.52812 | -70.81816 | 3322 ft | 205 kts | 306° |
| 2026-05-06 00:06 | 42.53862 | -70.83113 | 3136 ft | 204 kts | 306° |
| 2026-05-06 00:06 | 42.54911 | -70.84392 | 3009 ft | 202 kts | 306° |
| 2026-05-06 00:06 | 42.55960 | -70.85670 | 2990 ft | 202 kts | 303° |
| 2026-05-06 00:07 | 42.56629 | -70.87186 | 2954 ft | 178 kts | 270° |
| 2026-05-06 00:07 | 42.56450 | -70.88739 | 3012 ft | 166 kts | 241° |
| 2026-05-06 00:07 | 42.55849 | -70.90085 | 3038 ft | 167 kts | 236° |
| 2026-05-06 00:07 | 42.55014 | -70.91134 | 3008 ft | 169 kts | 214° |
| 2026-05-06 00:08 | 42.53949 | -70.91830 | 3028 ft | 171 kts | 211° |
| 2026-05-06 00:08 | 42.52850 | -70.92468 | 3026 ft | 166 kts | 209° |
| 2026-05-06 00:08 | 42.51801 | -70.93031 | 2877 ft | 164 kts | 207° |
| 2026-05-06 00:08 | 42.50750 | -70.93567 | 2712 ft | 160 kts | 207° |
| 2026-05-06 00:09 | 42.49720 | -70.94080 | 2554 ft | 154 kts | 207° |
| 2026-05-06 00:09 | 42.48721 | -70.94573 | 2340 ft | 150 kts | 207° |
| 2026-05-06 00:09 | 42.47766 | -70.95040 | 2138 ft | 140 kts | 207° |
| 2026-05-06 00:09 | 42.46880 | -70.95473 | 1982 ft | 136 kts | 206° |
| 2026-05-06 00:10 | 42.45976 | -70.95917 | 1823 ft | 136 kts | 205° |
| 2026-05-06 00:10 | 42.45114 | -70.96334 | 1649 ft | 129 kts | 204° |
| 2026-05-06 00:10 | 42.44277 | -70.96740 | 1486 ft | 127 kts | 203° |
| 2026-05-06 00:10 | 42.43460 | -70.97136 | 1329 ft | 123 kts | 202° |
| 2026-05-06 00:11 | 42.42660 | -70.97525 | 1146 ft | 123 kts | 201° |
| 2026-05-06 00:11 | 42.41854 | -70.97916 | 964 ft | 123 kts | 201° |
| 2026-05-06 00:11 | 42.41035 | -70.98308 | 821 ft | 127 kts | 201° |
| 2026-05-06 00:11 | 42.40200 | -70.98716 | 669 ft | 128 kts | 202° |
| 2026-05-06 00:12 | 42.39355 | -70.99133 | 472 ft | 131 kts | 201° |
| 2026-05-06 00:12 | 42.38485 | -70.99547 | 325 ft | 134 kts | 201° |
| 2026-05-06 00:12 | 42.37600 | -70.99987 | 140 ft | 137 kts | 199° |
| 2026-05-06 00:12 | 42.36728 | -71.00402 | 29 ft | 124 kts | 196° |
| 2026-05-06 00:13 | 42.36144 | -71.00679 | 28 ft | 52 kts | 200° |
| 2026-05-06 00:13 | 42.35974 | -71.00825 | 29 ft | 19 kts | 230° |
| 2026-05-06 00:13 | 42.35908 | -71.00931 | 28 ft | 9 kts | 230° |
| 2026-05-06 00:13 | 42.35897 | -71.00949 | 28 ft | 0 kts | 230° |
| 2026-05-06 00:15 | 42.35890 | -71.00959 | 28 ft | 3 kts | 230° |
| 2026-05-06 00:15 | 42.35867 | -71.00997 | 28 ft | 10 kts | 230° |
| 2026-05-06 00:15 | 42.35833 | -71.01112 | 28 ft | 16 kts | 270° |
| 2026-05-06 00:15 | 42.35844 | -71.01229 | 28 ft | 8 kts | 278° |
| 2026-05-06 00:16 | 42.35847 | -71.01264 | 28 ft | 0 kts | 278° |
| 2026-05-06 00:18 | 42.35848 | -71.01270 | 28 ft | 3 kts | 278° |
| 2026-05-06 00:18 | 42.35857 | -71.01353 | 28 ft | 15 kts | 278° |
| 2026-05-06 00:18 | 42.35876 | -71.01506 | 28 ft | 18 kts | 281° |
| 2026-05-06 00:19 | 42.35899 | -71.01677 | 28 ft | 13 kts | 282° |
| 2026-05-06 00:19 | 42.35911 | -71.01756 | 28 ft | 8 kts | 281° |
| 2026-05-06 00:19 | 42.35926 | -71.01830 | 28 ft | 7 kts | 292° |
| 2026-05-06 00:19 | 42.35954 | -71.01857 | 28 ft | 3 kts | 21° |
| 2026-05-06 00:20 | 42.35976 | -71.01841 | 28 ft | 3 kts | 24° |
| 2026-05-06 00:20 | 42.35988 | -71.01835 | 28 ft | 2 kts | 21° |
| 2026-05-06 00:20 | 42.35993 | -71.01832 | 28 ft | 0 kts | 21° |